createdAt,value
2023-02-06T00:02:56.629Z,-4.09
2023-02-06T00:07:56.582Z,-4.09
2023-02-06T00:12:56.480Z,-3.99
2023-02-06T00:17:56.430Z,-4.08
2023-02-06T00:22:56.349Z,-4.29
2023-02-06T00:27:56.262Z,-4.22
2023-02-06T00:32:56.249Z,-4.22
2023-02-06T00:37:56.199Z,-4.32
2023-02-06T00:42:56.084Z,-4.28
2023-02-06T00:47:56.038Z,-4.37
2023-02-06T00:52:56.006Z,-4.36
2023-02-06T00:57:56.016Z,-4.30
2023-02-06T01:02:55.860Z,-4.36
2023-02-06T01:07:55.768Z,-4.46
2023-02-06T01:12:55.724Z,-4.40
2023-02-06T01:17:55.710Z,-4.51
2023-02-06T01:22:55.583Z,-4.59
2023-02-06T01:27:55.580Z,-4.57
2023-02-06T01:32:55.425Z,-4.61
2023-02-06T01:37:55.363Z,-4.47
2023-02-06T01:42:55.405Z,-4.33
2023-02-06T01:47:55.282Z,-4.28
2023-02-06T01:52:55.204Z,-4.26
2023-02-06T01:57:55.122Z,-4.32
2023-02-06T02:02:55.061Z,-4.09
2023-02-06T02:07:55.039Z,-4.09
2023-02-06T02:12:54.932Z,-3.94
2023-02-06T02:17:54.894Z,-3.96
2023-02-06T02:22:54.808Z,-3.98
2023-02-06T02:27:54.790Z,-4.05
2023-02-06T02:32:54.709Z,-4.09
2023-02-06T02:37:54.652Z,-4.11
2023-02-06T02:42:54.616Z,-4.23
2023-02-06T02:47:54.487Z,-4.22
2023-02-06T02:52:54.485Z,-4.30
2023-02-06T02:57:54.370Z,-4.37
2023-02-06T03:02:54.322Z,-4.33
2023-02-06T03:07:54.595Z,-4.32
2023-02-06T03:12:54.296Z,-4.29
2023-02-06T03:17:54.252Z,-4.37
2023-02-06T03:22:54.051Z,-4.30
2023-02-06T03:27:54.399Z,-4.32
2023-02-06T03:32:53.907Z,-4.25
2023-02-06T03:37:53.845Z,-4.22
2023-02-06T03:42:53.815Z,-4.29
2023-02-06T03:47:53.701Z,-4.33
2023-02-06T03:52:53.699Z,-4.30
2023-02-06T03:57:53.574Z,-4.23
2023-02-06T04:02:53.574Z,-4.14
2023-02-06T04:07:53.554Z,-4.09
2023-02-06T04:12:53.397Z,-4.15
2023-02-06T04:18:00.580Z,-4.11
2023-02-06T04:22:54.277Z,-4.07
2023-02-06T04:27:53.322Z,-4.07
2023-02-06T04:32:53.142Z,-3.94
2023-02-06T04:37:53.090Z,-3.96
2023-02-06T04:42:53.012Z,-3.93
2023-02-06T04:47:53.007Z,-3.84
2023-02-06T04:52:52.878Z,-3.68
2023-02-06T04:57:52.890Z,-3.56
2023-02-06T05:02:52.795Z,-3.35
2023-02-06T05:07:52.747Z,-3.26
2023-02-06T05:12:52.624Z,-2.97
2023-02-06T05:17:52.557Z,-2.75
2023-02-06T05:22:52.551Z,-2.43
2023-02-06T05:27:52.515Z,-2.56
2023-02-06T05:32:52.470Z,-2.48
2023-02-06T05:37:52.315Z,-2.42
2023-02-06T05:42:52.235Z,-2.45
2023-02-06T05:47:52.170Z,-2.48
2023-02-06T05:52:52.194Z,-2.42
2023-02-06T05:57:52.063Z,-2.36
2023-02-06T06:02:52.047Z,-2.33
2023-02-06T06:07:51.965Z,-2.32
2023-02-06T06:12:51.876Z,-2.32
2023-02-06T06:17:51.814Z,-2.32
2023-02-06T06:22:51.739Z,-2.32
2023-02-06T06:27:51.735Z,-2.20
2023-02-06T06:32:51.620Z,-2.17
2023-02-06T06:37:51.556Z,-2.16
2023-02-06T06:42:51.552Z,-2.21
2023-02-06T06:47:51.481Z,-2.10
2023-02-06T06:52:51.352Z,-2.05
2023-02-06T06:57:51.304Z,-2.00
2023-02-06T07:02:51.309Z,-1.96
2023-02-06T07:07:51.147Z,-1.92
2023-02-06T07:12:51.126Z,-1.87
2023-02-06T07:17:51.006Z,-1.77
2023-02-06T07:22:51.006Z,-1.77
2023-02-06T07:27:50.931Z,-1.70
2023-02-06T07:32:50.920Z,-1.53
2023-02-06T07:37:50.822Z,-1.35
2023-02-06T07:42:50.773Z,-1.10
2023-02-06T07:47:50.696Z,-1.06
2023-02-06T07:52:50.625Z,-0.89
2023-02-06T07:57:50.568Z,-0.72
2023-02-06T08:02:50.486Z,-0.80
2023-02-06T08:07:50.432Z,-0.65
2023-02-06T08:12:50.357Z,-0.62
2023-02-06T08:17:50.326Z,-0.50
2023-02-06T08:22:50.197Z,-0.41
2023-02-06T08:27:50.217Z,-0.30
2023-02-06T08:32:50.064Z,-0.30
2023-02-06T08:37:50.067Z,-0.26
2023-02-06T08:42:49.963Z,-0.24
2023-02-06T08:47:49.891Z,-0.08
2023-02-06T08:52:49.924Z,0.02
2023-02-06T08:57:49.786Z,0.20
2023-02-06T09:02:49.788Z,0.33
2023-02-06T09:07:49.596Z,0.43
2023-02-06T09:12:49.610Z,0.52
2023-02-06T09:17:49.481Z,0.57
2023-02-06T09:22:49.459Z,0.61
2023-02-06T09:27:49.461Z,0.67
2023-02-06T09:32:49.366Z,0.60
2023-02-06T09:37:49.222Z,0.58
2023-02-06T09:42:49.140Z,0.61
2023-02-06T09:47:49.088Z,0.68
2023-02-06T09:52:49.030Z,0.76
2023-02-06T09:57:48.941Z,0.86
2023-02-06T10:02:48.904Z,1.07
2023-02-06T10:07:48.825Z,1.40
2023-02-06T10:12:48.762Z,1.57
2023-02-06T10:17:48.734Z,1.82
2023-02-06T10:22:48.649Z,1.99
2023-02-06T10:27:48.616Z,2.08
2023-02-06T10:32:48.534Z,2.16
2023-02-06T10:37:48.464Z,2.22
2023-02-06T10:42:48.380Z,1.98
2023-02-06T10:47:48.372Z,2.01
2023-02-06T10:52:48.251Z,2.06
2023-02-06T10:57:48.186Z,1.85
2023-02-06T11:02:52.810Z,1.24
2023-02-06T11:07:49.061Z,1.06
2023-02-06T11:12:48.008Z,1.28
2023-02-06T11:17:47.978Z,1.61
2023-02-06T11:22:53.185Z,2.06
2023-02-06T11:27:48.838Z,2.33
2023-02-06T11:33:02.702Z,2.56
2023-02-06T11:37:48.655Z,2.73
2023-02-06T11:42:47.640Z,2.67
2023-02-06T11:47:47.536Z,2.88
2023-02-06T11:52:47.493Z,3.13
2023-02-06T11:57:47.401Z,3.30
2023-02-06T12:02:47.334Z,3.44
2023-02-06T12:07:47.327Z,3.50
2023-02-06T12:12:47.214Z,3.34
2023-02-06T12:17:47.181Z,3.34
2023-02-06T12:22:47.097Z,3.06
2023-02-06T12:27:47.021Z,3.00
2023-02-06T12:32:46.944Z,3.16
2023-02-06T12:37:46.955Z,3.43
2023-02-06T12:42:46.803Z,3.58
2023-02-06T12:47:46.733Z,3.78
2023-02-06T12:52:46.690Z,3.68
2023-02-06T12:57:46.713Z,3.47
2023-02-06T13:02:46.579Z,3.42
2023-02-06T13:07:49.651Z,3.47
2023-02-06T13:12:46.440Z,3.68
2023-02-06T13:17:46.345Z,3.64
2023-02-06T13:22:46.288Z,3.80
2023-02-06T13:27:46.280Z,3.88
2023-02-06T13:32:46.178Z,3.90
2023-02-06T13:37:48.036Z,3.98
2023-02-06T13:42:46.150Z,4.07
2023-02-06T13:47:46.397Z,3.94
2023-02-06T13:52:45.920Z,3.75
2023-02-06T13:57:45.806Z,3.61
2023-02-06T14:02:45.811Z,3.60
2023-02-06T14:07:45.835Z,3.54
2023-02-06T14:12:45.630Z,3.46
2023-02-06T14:17:45.894Z,3.24
2023-02-06T14:22:45.569Z,3.07
2023-02-06T14:27:48.047Z,2.70
2023-02-06T14:32:46.382Z,2.44
2023-02-06T14:37:45.303Z,2.33
2023-02-06T14:42:45.252Z,2.20
2023-02-06T14:47:45.148Z,2.08
2023-02-06T14:52:45.210Z,1.98
2023-02-06T14:57:45.046Z,1.83
2023-02-06T15:02:45.014Z,1.51
2023-02-06T15:07:44.997Z,1.44
2023-02-06T15:12:44.847Z,1.42
2023-02-06T15:17:44.858Z,1.36
2023-02-06T15:22:44.747Z,1.21
2023-02-06T15:27:44.680Z,1.22
2023-02-06T15:32:44.624Z,1.16
2023-02-06T15:37:44.904Z,1.15
2023-02-06T15:42:44.767Z,1.06
2023-02-06T15:47:44.469Z,0.97
2023-02-06T15:52:44.317Z,0.88
2023-02-06T15:57:44.312Z,0.80
2023-02-06T16:02:44.244Z,0.79
2023-02-06T16:07:44.128Z,0.65
2023-02-06T16:12:44.347Z,0.48
2023-02-06T16:17:44.115Z,0.43
2023-02-06T16:22:43.969Z,0.27
2023-02-06T16:27:44.061Z,0.13
2023-02-06T16:32:43.897Z,0.06
2023-02-06T16:37:43.786Z,-0.05
2023-02-06T16:42:43.770Z,-0.18
2023-02-06T16:47:43.761Z,-0.24
2023-02-06T16:52:43.695Z,-0.36
2023-02-06T16:57:43.498Z,-0.31
2023-02-06T17:02:44.407Z,-0.45
2023-02-06T17:07:43.367Z,-0.55
2023-02-06T17:12:43.536Z,-0.68
2023-02-06T17:17:43.358Z,-0.78
2023-02-06T17:22:43.245Z,-1.02
2023-02-06T17:27:43.223Z,-1.17
2023-02-06T17:32:43.120Z,-1.38
2023-02-06T17:37:42.973Z,-1.43
2023-02-06T17:42:43.068Z,-1.57
2023-02-06T17:47:43.341Z,-1.56
2023-02-06T17:52:42.852Z,-1.42
2023-02-06T17:57:42.777Z,-1.23
2023-02-06T18:02:42.787Z,-1.33
2023-02-06T18:07:42.639Z,-1.46
2023-02-06T18:12:42.568Z,-1.38
2023-02-06T18:17:42.747Z,-1.42
2023-02-06T18:22:42.766Z,-1.67
2023-02-06T18:27:42.976Z,-1.57
2023-02-06T18:32:42.424Z,-1.56
2023-02-06T18:37:42.253Z,-1.59
2023-02-06T18:42:42.668Z,-1.59
2023-02-06T18:47:42.426Z,-1.60
2023-02-06T18:52:42.223Z,-1.67
2023-02-06T18:57:42.119Z,-1.92
2023-02-06T19:02:41.870Z,-2.00
2023-02-06T19:07:41.810Z,-2.03
2023-02-06T19:12:41.839Z,-2.00
2023-02-06T19:17:41.761Z,-2.16
2023-02-06T19:22:41.641Z,-2.35
2023-02-06T19:27:41.591Z,-2.29
2023-02-06T19:32:41.659Z,-2.43
2023-02-06T19:37:41.500Z,-2.51
2023-02-06T19:42:41.502Z,-2.48
2023-02-06T19:47:41.364Z,-2.47
2023-02-06T19:52:44.732Z,-2.66
2023-02-06T19:57:41.196Z,-2.71
2023-02-06T20:02:41.128Z,-2.60
2023-02-06T20:07:41.127Z,-2.75
2023-02-06T20:12:41.079Z,-2.85
2023-02-06T20:17:41.501Z,-2.89
2023-02-06T20:22:40.953Z,-2.78
2023-02-06T20:27:40.835Z,-2.68
2023-02-06T20:32:40.965Z,-2.81
2023-02-06T20:37:40.830Z,-3.04
2023-02-06T20:42:40.600Z,-3.14
2023-02-06T20:47:40.553Z,-3.08
2023-02-06T20:52:41.350Z,-2.97
2023-02-06T20:57:40.581Z,-2.99
2023-02-06T21:02:40.486Z,-3.26
2023-02-06T21:07:40.303Z,-3.08
2023-02-06T21:12:40.437Z,-3.15
2023-02-06T21:17:40.240Z,-3.00
2023-02-06T21:22:40.220Z,-3.22
2023-02-06T21:27:40.066Z,-3.10
2023-02-06T21:32:40.002Z,-3.11
2023-02-06T21:37:39.927Z,-3.35
2023-02-06T21:42:39.899Z,-3.29
2023-02-06T21:47:39.845Z,-3.47
2023-02-06T21:52:39.801Z,-3.67
2023-02-06T21:57:39.678Z,-3.75
2023-02-06T22:02:39.718Z,-3.84
2023-02-06T22:07:39.570Z,-3.86
2023-02-06T22:12:40.468Z,-3.90
2023-02-06T22:17:39.615Z,-3.78
2023-02-06T22:22:39.354Z,-3.70
2023-02-06T22:27:39.343Z,-3.91
2023-02-06T22:32:40.895Z,-3.89
2023-02-06T22:37:39.139Z,-3.81
2023-02-06T22:42:39.113Z,-3.78
2023-02-06T22:47:39.029Z,-3.99
2023-02-06T22:52:39.185Z,-4.23
2023-02-06T22:57:38.909Z,-4.29
2023-02-06T23:02:38.932Z,-4.32
2023-02-06T23:07:39.009Z,-4.28
2023-02-06T23:12:38.768Z,-4.38
2023-02-06T23:17:38.663Z,-4.25
2023-02-06T23:22:38.674Z,-4.12
2023-02-06T23:27:38.527Z,-4.29
2023-02-06T23:32:38.664Z,-4.29
2023-02-06T23:37:38.402Z,-4.26
2023-02-06T23:42:38.289Z,-4.36
2023-02-06T23:47:38.373Z,-4.48
2023-02-06T23:52:38.354Z,-4.51
2023-02-06T23:57:38.127Z,-4.59
